To NAV CANADA Home Page Login to a new session Search on AWWS site Disclaimer Vers la page française équivalente Tips FAQ What's new on the site To the Forecasts and Observations / NOTAM section To "File a Flight Plan" website Publications and other links Update of the User's profile FIC Telephone Numbers My Weather Data Folder Route Weather Data Regional Weather Data Local Weather Data To the Forecasts and Observations / NOTAM section
Request Generated 03/19/2019 at 23:06:15 UTC . Weather information available at that time is displayed.

METAR/TAF

CRANBROOK/CANADIAN ROCKIES INTL/BC    

METAR CYXC 192300Z 00000KT 25SM FEW240 13/M04 A3023 RMK CI1 SLP259 DENSITY ALT 3300FT=
METAR CYXC 192200Z 35003KT 230V010 25SM FEW240 12/M03 A3025 RMK CI1 SLP265 DENSITY ALT 3100FT=
METAR CYXC 192100Z VRB02KT 25SM FEW240 11/M05 A3027 RMK CI1 SLP272=

TAF CYXC 191838Z 1919/2007 VRB03KT P6SM FEW240
RMK NXT FCST BY 200100Z=
Your time UTC time
Weather data provided by Environment Canada and NAV CANADA